Time;durP1;ratioP1;P1;durP2;ratioP2;P2;SDS_P1;SDS_P2;PMS_P1;PMS_P2;Temp;Humidity;BMP_temperature;BMP_pressure;BME280_temperature;BME280_humidity;BME280_pressure;Samples;Min_cycle;Max_cycle;Signal;HPM_P1;HPM_P2
2022/12/24 01:46:26;;;;;;;38.35;21.77;;;;;;;7.52;77.78;99084.30;2343049;82;25874;-80
2022/12/24 01:49:59;;;;;;;34.67;22.37;;;;;;;7.67;77.53;99083.67;2322566;84;25742;-82
2022/12/24 01:53:36;;;;;;;38.58;24.10;;;;;;;7.83;77.24;99095.55;2343257;84;25654;-81
2022/12/24 01:57:05;;;;;;;45.40;23.60;;;;;;;7.95;76.94;99090.54;2320529;84;25688;-82
2022/12/24 02:00:56;;;;;;;35.50;22.62;;;;;;;8.11;76.54;99103.30;2261783;87;25813;-81
2022/12/24 02:04:51;;;;;;;40.52;23.47;;;;;;;8.21;76.19;99097.38;2223976;88;25917;-81
2022/12/24 02:08:38;;;;;;;32.23;21.30;;;;;;;8.35;75.86;99105.33;2215646;88;25781;-80
2022/12/24 02:11:56;;;;;;;34.30;21.17;;;;;;;8.45;75.45;99108.08;2231104;88;26644;-81
2022/12/24 02:15:36;;;;;;;36.20;22.58;;;;;;;8.55;75.13;99099.97;2224059;87;25669;-79
2022/12/24 02:19:36;;;;;;;42.78;23.73;;;;;;;8.61;74.82;99096.14;2112580;92;25963;-80
2022/12/24 02:23:44;;;;;;;42.27;25.15;;;;;;;8.65;74.57;99094.02;2073198;94;25830;-81
2022/12/24 02:27:37;;;;;;;38.17;23.67;;;;;;;8.73;74.32;99094.09;2024966;97;26606;-82
2022/12/24 02:31:10;;;;;;;40.05;24.55;;;;;;;8.81;73.97;99087.66;2005693;97;25860;-80
2022/12/24 02:34:49;;;;;;;39.20;22.75;;;;;;;8.86;73.75;99091.19;1999296;97;25772;-80
2022/12/24 02:38:35;;;;;;;36.15;23.30;;;;;;;8.86;73.51;99095.09;2008074;98;25741;-83
2022/12/24 02:42:06;;;;;;;41.85;23.98;;;;;;;8.91;73.35;99092.98;1988280;97;25884;-81
2022/12/24 02:45:37;;;;;;;43.70;24.75;;;;;;;8.95;73.13;99089.55;1968875;97;26386;-81
2022/12/24 02:49:13;;;;;;;41.15;24.02;;;;;;;8.93;72.96;99093.85;1982580;98;25962;-80
2022/12/24 02:52:44;;;;;;;39.25;24.87;;;;;;;8.97;72.88;99091.72;1983024;97;25801;-81
2022/12/24 02:56:26;;;;;;;44.93;25.65;;;;;;;8.99;72.62;99087.42;2000891;97;26208;-81
2022/12/24 03:00:09;;;;;;;50.92;27.35;;;;;;;8.96;72.59;99087.39;2118460;91;26511;-80
2022/12/24 03:03:36;;;;;;;47.80;26.27;;;;;;;8.95;72.47;99094.75;2120644;92;26059;-81
2022/12/24 03:07:20;;;;;;;48.87;25.33;;;;;;;8.97;72.46;99096.91;2120344;92;25720;-81
2022/12/24 03:11:14;;;;;;;52.48;26.45;;;;;;;8.96;72.37;99096.48;2120509;88;25843;-81
2022/12/24 03:14:41;;;;;;;43.25;24.50;;;;;;;8.98;72.23;99093.48;2162657;87;25847;-80
2022/12/24 03:18:17;;;;;;;44.98;24.67;;;;;;;9.06;72.16;99096.58;2263272;87;25748;-82
2022/12/24 03:21:53;;;;;;;42.75;24.55;;;;;;;9.10;72.01;99104.41;2264883;82;25728;-80
2022/12/24 03:25:24;;;;;;;42.45;25.85;;;;;;;9.14;71.85;99111.37;2264535;86;25913;-79
2022/12/24 03:28:52;;;;;;;40.90;23.20;;;;;;;9.18;71.69;99107.96;2277805;86;25803;-80
2022/12/24 03:32:22;;;;;;;36.28;22.60;;;;;;;9.13;71.48;99099.23;2285662;84;25720;-80
2022/12/24 03:35:58;;;;;;;34.15;22.15;;;;;;;9.09;71.54;99099.20;2289388;86;25624;-80
2022/12/24 03:39:24;;;;;;;32.75;20.30;;;;;;;9.10;71.42;99101.80;2235842;86;25643;-80
2022/12/24 03:42:52;;;;;;;33.67;19.20;;;;;;;9.10;71.25;99102.24;2261470;87;25762;-79
2022/12/24 03:46:36;;;;;;;28.12;19.48;;;;;;;9.06;71.25;99104.38;2333917;84;25618;-80
2022/12/24 03:49:52;;;;;;;;;;;;;;;9.09;71.19;99107.01;2183289;90;25830;-80
2022/12/24 03:53:28;;;;;;;25.45;17.40;;;;;;;9.12;71.00;99104.00;2182111;90;25993;-81
2022/12/24 03:57:08;;;;;;;30.10;18.77;;;;;;;9.15;70.98;99106.63;2146258;90;25806;-81
2022/12/24 04:00:34;;;;;;;28.70;17.55;;;;;;;9.20;70.87;99105.36;2142544;90;25860;-80
2022/12/24 04:04:15;;;;;;;24.72;17.05;;;;;;;9.25;70.73;99111.89;2184476;90;25796;-82
2022/12/24 04:07:58;;;;;;;26.17;18.67;;;;;;;9.23;70.60;99117.95;2184502;90;25771;-81
2022/12/24 04:11:31;;;;;;;24.32;17.80;;;;;;;9.22;70.52;99115.36;2180157;90;25826;-81
2022/12/24 04:14:58;;;;;;;29.65;17.73;;;;;;;9.19;70.42;99116.63;2184268;90;25759;-80
2022/12/24 04:18:20;;;;;;;27.87;17.55;;;;;;;9.13;70.37;99110.94;2158302;90;25741;-83
2022/12/24 04:21:49;;;;;;;27.02;17.00;;;;;;;9.07;70.43;99103.51;2184682;90;25733;-80
2022/12/24 04:25:14;;;;;;;29.82;18.92;;;;;;;9.05;70.43;99107.41;2134705;92;25771;-80
2022/12/24 04:28:45;;;;;;;27.95;17.02;;;;;;;9.04;70.43;99100.88;2133749;92;25768;-80
2022/12/24 04:32:16;;;;;;;30.45;17.57;;;;;;;9.03;70.45;99101.31;2132651;92;25784;-79
2022/12/24 04:35:45;;;;;;;29.45;17.37;;;;;;;9.00;70.35;99106.48;2134760;92;25746;-81
2022/12/24 04:39:19;;;;;;;26.77;17.48;;;;;;;8.98;70.46;99110.81;2133694;92;25965;-82
2022/12/24 04:42:46;;;;;;;25.02;15.70;;;;;;;8.98;70.31;99106.48;2132868;92;26397;-80
2022/12/24 04:46:19;;;;;;;27.52;16.23;;;;;;;8.99;70.35;99101.72;2186773;87;25904;-80
2022/12/24 04:50:00;;;;;;;26.93;17.20;;;;;;;9.01;70.25;99103.05;2273209;87;25807;-81
2022/12/24 04:53:36;;;;;;;28.25;16.32;;;;;;;9.03;70.20;99104.34;2218663;87;25791;-80
2022/12/24 04:57:10;;;;;;;28.73;16.80;;;;;;;8.99;70.10;99108.65;2096039;92;26186;-80
2022/12/24 05:00:38;;;;;;;25.75;16.97;;;;;;;8.99;70.11;99114.71;1980175;99;25913;-81
2022/12/24 05:04:05;;;;;;;25.12;15.28;;;;;;;8.98;70.15;99112.98;1970258;99;25782;-79
2022/12/24 05:07:42;;;;;;;23.05;15.80;;;;;;;8.97;70.09;99119.01;1977292;99;25772;-80
2022/12/24 05:11:28;;;;;;;21.23;14.98;;;;;;;8.95;70.00;99116.84;1961614;100;26537;-80
2022/12/24 05:15:03;;;;;;;17.73;11.70;;;;;;;8.96;70.04;99119.01;1919292;101;25852;-82
2022/12/24 05:18:28;;;;;;;20.97;10.72;;;;;;;8.93;69.86;99126.77;1932947;101;25850;-81
2022/12/24 05:29:39;;;;;;;12.03;10.48;;;;;;;8.83;69.66;99125.80;1969415;98;25797;-82
2022/12/24 05:33:22;;;;;;;16.93;11.35;;;;;;;8.81;69.73;99122.34;2041658;95;25806;-85
2022/12/24 05:36:46;;;;;;;12.00;10.72;;;;;;;8.77;69.62;99128.33;2041567;95;25827;-81
2022/12/24 05:40:17;;;;;;;13.88;10.45;;;;;;;8.72;69.68;99127.43;2051078;95;25858;-80
2022/12/24 05:43:57;;;;;;;13.03;10.38;;;;;;;8.69;69.70;99128.27;2050881;95;25813;-81
2022/12/24 05:47:40;;;;;;;13.55;10.58;;;;;;;8.69;69.75;99128.69;1966326;98;25810;-80
2022/12/24 05:51:01;;;;;;;12.75;10.20;;;;;;;8.74;69.75;99136.99;2014984;97;25830;-81
2022/12/24 05:54:34;;;;;;;14.68;10.72;;;;;;;8.78;69.69;99135.30;2014357;97;25406;-79
2022/12/24 05:57:59;;;;;;;14.38;10.60;;;;;;;8.76;69.49;99143.48;2011622;97;25827;-80
2022/12/24 06:01:39;;;;;;;12.23;9.63;;;;;;;8.70;69.52;99139.09;2002468;96;25899;-79
2022/12/24 06:05:10;;;;;;;15.10;10.30;;;;;;;8.67;69.58;99142.08;1977690;97;25885;-81
2022/12/24 06:08:50;;;;;;;13.95;10.80;;;;;;;8.59;69.58;99139.84;2040853;93;25721;-83
2022/12/24 06:12:25;;;;;;;14.05;11.00;;;;;;;8.64;69.68;99146.84;2056268;95;25826;-80
2022/12/24 06:15:52;;;;;;;14.78;10.95;;;;;;;8.70;69.52;99149.91;2059196;95;25994;-80
2022/12/24 06:19:25;;;;;;;16.32;11.03;;;;;;;8.61;69.40;99144.63;2048261;95;25932;-80
2022/12/24 06:22:49;;;;;;;16.42;11.68;;;;;;;8.58;69.62;99145.47;2057643;95;25844;-80
2022/12/24 06:26:22;;;;;;;14.70;10.85;;;;;;;8.63;69.61;99158.49;2057656;95;25827;-81
2022/12/24 06:29:59;;;;;;;13.53;10.90;;;;;;;8.59;69.49;99153.69;2078936;93;25744;-81
2022/12/24 06:33:28;;;;;;;14.30;10.05;;;;;;;8.58;69.57;99161.48;2020109;96;25814;-83
2022/12/24 06:36:55;;;;;;;14.28;10.68;;;;;;;8.54;69.52;99157.08;2013836;97;25937;-82
2022/12/24 06:40:30;;;;;;;;;;;;;;;;;;;;;
2022/12/24 06:43:52;;;;;;;19.85;11.75;;;;;;;8.51;69.75;99172.22;2063340;93;25739;-79
2022/12/24 06:47:24;;;;;;;14.78;11.18;;;;;;;8.58;69.72;99179.23;2086175;93;25804;-79
2022/12/24 06:50:53;;;;;;;14.18;10.80;;;;;;;8.63;69.59;99179.27;2130296;90;25986;-79
2022/12/24 06:54:26;;;;;;;17.48;11.20;;;;;;;8.59;69.51;99176.20;2195981;88;25815;-80
2022/12/24 06:58:07;;;;;;;12.15;9.88;;;;;;;8.59;69.58;99177.50;2148949;90;25973;-82
2022/12/24 07:01:42;;;;;;;16.52;11.08;;;;;;;8.63;70.11;99172.34;2089358;92;25726;-82
2022/12/24 07:05:18;;;;;;;18.05;11.65;;;;;;;8.72;69.91;99171.59;2089237;92;25766;-81
2022/12/24 07:08:58;;;;;;;17.57;11.93;;;;;;;8.69;69.78;99175.45;2040781;96;25950;-82
2022/12/24 07:12:31;;;;;;;18.45;11.40;;;;;;;8.68;69.63;99184.12;2032531;96;25764;-82
2022/12/24 07:16:04;;;;;;;19.45;12.78;;;;;;;8.64;69.58;99188.41;2046370;96;25912;-81
2022/12/24 07:19:35;;;;;;;15.43;10.50;;;;;;;8.67;69.59;99191.44;2023117;96;25954;-82
2022/12/24 07:23:22;;;;;;;;;;;;;;;;;;;;;
2022/12/24 07:26:48;;;;;;;17.27;11.33;;;;;;;8.55;69.53;99206.89;2040697;95;25789;-83
2022/12/24 07:30:39;;;;;;;;;;;;;;;;;;;;;
2022/12/24 07:34:04;;;;;;;16.32;10.85;;;;;;;8.61;69.55;99206.55;2029682;96;26019;-82
2022/12/24 07:37:50;;;;;;;16.12;10.80;;;;;;;8.58;69.39;99214.30;2039413;95;25741;-81
2022/12/24 07:41:20;;;;;;;14.30;10.88;;;;;;;8.57;69.41;99220.75;2029980;96;25768;-81
2022/12/24 07:45:04;;;;;;;16.73;12.77;;;;;;;8.57;69.41;99224.22;2033667;96;26030;-81
2022/12/24 07:48:48;;;;;;;16.62;11.33;;;;;;;8.57;69.43;99228.12;1970129;99;26561;-83
2022/12/24 07:52:19;;;;;;;15.03;10.48;;;;;;;8.52;69.45;99241.48;1971308;99;25933;-81
2022/12/24 07:56:09;;;;;;;20.68;11.80;;;;;;;8.57;69.51;99242.84;1954676;99;25931;-83
2022/12/24 07:59:48;;;;;;;19.73;12.35;;;;;;;8.63;69.48;99236.00;1979432;99;25906;-81
2022/12/24 08:03:32;;;;;;;19.87;11.88;;;;;;;8.63;69.31;99241.19;1992506;94;25815;-81
2022/12/24 08:07:08;;;;;;;17.40;11.78;;;;;;;8.62;69.25;99243.78;2194829;89;26391;-82
2022/12/24 08:10:40;;;;;;;17.98;11.33;;;;;;;8.57;69.28;99241.11;2186505;89;25686;-81
2022/12/24 08:14:21;;;;;;;16.52;11.12;;;;;;;8.60;69.31;99242.88;2187404;89;25942;-83
2022/12/24 08:17:51;;;;;;;16.17;10.45;;;;;;;8.64;69.23;99247.25;2181170;90;25784;-80
2022/12/24 08:21:26;;;;;;;17.17;11.63;;;;;;;8.65;69.15;99246.00;2167471;90;25904;-83
2022/12/24 08:25:04;;;;;;;15.75;11.48;;;;;;;8.71;69.22;99250.41;2190785;90;25838;-83
2022/12/24 08:28:31;;;;;;;16.40;11.50;;;;;;;8.78;69.07;99257.42;2190388;90;25798;-84
2022/12/24 08:32:41;;;;;;;;;;;;;;;;;;;;;
2022/12/24 08:36:09;;;;;;;11.93;9.90;;;;;;;8.75;68.83;99267.78;2057794;95;25786;-85
2022/12/24 08:39:39;;;;;;;16.95;11.88;;;;;;;8.79;68.80;99270.86;2057804;93;25809;-81
2022/12/24 08:43:12;;;;;;;15.53;11.00;;;;;;;8.75;68.80;99263.88;2076274;93;25770;-83
2022/12/24 08:47:01;;;;;;;;;;;;;;;;;;;;;
2022/12/24 08:50:27;;;;;;;16.95;10.50;;;;;;;8.82;68.45;99285.19;2073753;92;26469;-81
2022/12/24 08:54:00;;;;;;;12.73;9.38;;;;;;;8.82;68.45;99285.19;2108621;92;25819;-81
2022/12/24 08:57:27;;;;;;;17.35;9.90;;;;;;;8.84;68.54;99286.09;2109132;93;25908;-81
2022/12/24 09:00:56;;;;;;;17.07;10.58;;;;;;;8.81;68.51;99286.05;2100035;92;25825;-83
2022/12/24 09:04:26;;;;;;;12.78;9.73;;;;;;;8.78;68.50;99285.14;2102241;92;25815;-84
2022/12/24 09:07:50;;;;;;;11.08;9.65;;;;;;;8.81;68.51;99296.45;2148859;91;25863;-87
2022/12/24 09:11:30;;;;;;;12.00;8.43;;;;;;;8.84;68.33;99293.89;2023897;93;25882;-83
2022/12/24 09:15:13;;;;;;;13.20;9.10;;;;;;;8.84;68.38;99292.59;2100235;93;25838;-82
2022/12/24 09:18:50;;;;;;;13.93;9.70;;;;;;;8.85;68.42;99300.83;2094496;93;25949;-81
2022/12/24 09:22:21;;;;;;;15.60;10.65;;;;;;;8.91;68.35;99300.02;2083135;93;25798;-82
2022/12/24 09:26:04;;;;;;;;;;;;;;;;;;;;;
2022/12/24 09:29:28;;;;;;;16.97;11.97;;;;;;;9.07;68.29;99308.88;1983038;97;25890;-79
2022/12/24 09:32:55;;;;;;;16.80;11.80;;;;;;;9.12;68.20;99320.23;1999515;97;25918;-80
2022/12/24 09:36:45;;;;;;;;;;;;;;;;;;;;;
2022/12/24 09:40:38;;;;;;;12.47;9.43;;;;;;;9.22;70.21;99319.48;2076764;94;25955;-83
2022/12/24 09:44:14;;;;;;;15.23;9.83;;;;;;;9.89;72.46;99326.71;2067653;95;25730;-82
2022/12/24 09:47:54;;;;;;;12.40;10.70;;;;;;;10.34;70.39;99331.89;2058863;93;26002;-83
2022/12/24 09:51:55;;;;;;;12.43;10.53;;;;;;;9.96;68.75;99320.27;2088168;94;26000;-84
2022/12/24 09:55:53;;;;;;;15.70;10.98;;;;;;;9.96;68.75;99320.27;2085078;94;25803;-85
2022/12/24 09:59:43;;;;;;;17.23;10.93;;;;;;;9.86;68.23;99327.11;2097629;92;26001;-81
2022/12/24 10:03:27;;;;;;;12.80;9.70;;;;;;;9.73;68.00;99333.05;2093165;88;25754;-81
2022/12/24 10:07:24;;;;;;;12.58;9.55;;;;;;;9.69;68.04;99338.66;2068554;92;26139;-81
2022/12/24 10:11:34;;;;;;;14.07;9.13;;;;;;;9.94;68.86;99347.13;2061437;93;25890;-81
2022/12/24 10:15:31;;;;;;;11.70;9.88;;;;;;;9.94;68.37;99348.44;2041012;96;25786;-81
2022/12/24 10:19:16;;;;;;;14.20;10.15;;;;;;;10.11;68.72;99352.93;2000959;96;25946;-79
2022/12/24 10:23:27;;;;;;;8.58;7.20;;;;;;;10.10;68.55;99360.31;2024617;96;25808;-80
2022/12/24 10:27:14;;;;;;;11.35;9.28;;;;;;;10.10;69.38;99361.61;2036096;94;25782;-81
2022/12/24 10:30:43;;;;;;;10.90;8.80;;;;;;;10.11;68.78;99364.66;2049769;94;26038;-81
2022/12/24 10:34:53;;;;;;;13.45;9.43;;;;;;;10.06;68.28;99363.31;2049088;94;25732;-82
2022/12/24 10:38:25;;;;;;;12.33;9.03;;;;;;;10.11;68.85;99364.66;1894151;104;25940;-79
2022/12/24 10:42:07;;;;;;;9.30;7.75;;;;;;;10.15;67.82;99374.23;1896687;102;25952;-81
2022/12/24 10:45:40;;;;;;;10.30;8.75;;;;;;;10.33;69.58;99378.34;1874178;102;26179;-80
2022/12/24 10:52:41;;;;;;;11.20;8.78;;;;;;;10.29;67.99;99366.16;1966403;100;25491;-80
2022/12/24 10:56:09;;;;;;;16.17;11.75;;;;;;;10.33;67.63;99387.47;1977518;99;25792;-81
2022/12/24 10:59:57;;;;;;;16.35;11.60;;;;;;;10.30;67.71;99393.08;1970782;99;25981;-82
2022/12/24 11:03:31;;;;;;;18.32;12.03;;;;;;;10.35;67.71;99393.54;1926840;102;25984;-81
2022/12/24 11:07:11;;;;;;;12.93;11.00;;;;;;;10.35;67.71;99393.54;1927287;102;25804;-81
2022/12/24 11:10:41;;;;;;;9.60;8.55;;;;;;;10.34;67.44;99392.24;1926482;101;25793;-81
2022/12/24 11:14:16;;;;;;;11.30;10.10;;;;;;;10.43;68.22;99401.45;1901837;102;25826;-80
2022/12/24 11:17:37;;;;;;;10.43;9.30;;;;;;;10.52;67.59;99408.45;1892715;102;25966;-81
2022/12/24 11:21:14;;;;;;;9.55;8.58;;;;;;;10.57;67.91;99411.55;1893355;102;26436;-81
2022/12/24 11:24:45;;;;;;;12.75;9.58;;;;;;;10.66;68.33;99409.42;1935273;99;26042;-81
2022/12/24 11:28:41;;;;;;;;;;;;;;;;;;;;;
2022/12/24 11:32:24;;;;;;;15.83;13.40;;;;;;;10.68;66.21;99415.97;1926383;100;25517;-81
2022/12/24 11:36:10;;;;;;;21.85;14.87;;;;;;;10.43;65.90;99418.78;1931700;100;26009;-82
2022/12/24 11:40:03;;;;;;;20.75;14.87;;;;;;;10.24;65.85;99426.41;1972003;96;25881;-79
2022/12/24 11:43:49;;;;;;;16.82;13.58;;;;;;;10.16;65.67;99434.16;1988966;97;26071;-79
2022/12/24 11:47:20;;;;;;;19.20;13.32;;;;;;;10.02;65.56;99430.52;2018004;97;25827;-79
2022/12/24 11:50:50;;;;;;;18.40;13.43;;;;;;;9.92;65.53;99434.78;2064006;93;26067;-80
2022/12/24 11:54:30;;;;;;;18.73;15.10;;;;;;;9.84;65.24;99444.22;2032237;95;25871;-80
2022/12/24 11:58:05;;;;;;;24.70;15.68;;;;;;;9.75;65.41;99453.21;2086643;93;25963;-80
2022/12/24 12:02:00;;;;;;;18.27;12.85;;;;;;;9.56;65.03;99460.37;2085979;93;25845;-80
2022/12/24 12:05:34;;;;;;;17.27;13.40;;;;;;;9.56;65.03;99460.37;2086045;93;26623;-79
2022/12/24 12:09:17;;;;;;;;;;;;;;;;;;;;;
2022/12/24 12:12:51;;;;;;;17.48;13.40;;;;;;;9.39;65.46;99464.05;2130036;91;26482;-79
2022/12/24 12:17:15;;;;;;;16.90;14.28;;;;;;;9.36;65.53;99465.30;2086920;91;26589;-79
2022/12/24 12:21:02;;;;;;;22.77;15.53;;;;;;;9.39;65.51;99479.66;2108225;92;25943;-78
2022/12/24 12:24:48;;;;;;;17.70;14.73;;;;;;;9.34;65.59;99479.56;2110598;92;25879;-81
2022/12/24 12:28:58;;;;;;;22.95;14.95;;;;;;;9.30;65.57;99487.32;2096042;92;25758;-81
2022/12/24 12:32:49;;;;;;;20.82;14.73;;;;;;;9.25;65.64;99501.97;2097167;92;25948;-79
2022/12/24 12:36:43;;;;;;;21.82;16.30;;;;;;;9.29;65.68;99505.95;2098886;92;25698;-80
2022/12/24 12:40:27;;;;;;;22.90;15.55;;;;;;;9.31;65.70;99519.84;2116338;92;25862;-81
2022/12/24 12:44:40;;;;;;;22.77;15.03;;;;;;;9.26;65.69;99524.11;2120370;92;25853;-79
2022/12/24 12:48:27;;;;;;;19.95;15.32;;;;;;;9.23;65.72;99535.77;2094642;89;25802;-80
2022/12/24 12:56:23;;;;;;;23.10;16.27;;;;;;;9.24;65.75;99538.80;2559839;76;30829;-79
2022/12/24 13:00:18;;;;;;;21.00;15.53;;;;;;;9.20;65.73;99541.78;2519221;76;25642;-80
2022/12/24 13:04:09;;;;;;;18.67;13.00;;;;;;;9.19;65.75;99558.25;2517311;75;25815;-78
2022/12/24 13:08:02;;;;;;;24.67;15.63;;;;;;;9.20;65.74;99553.48;2485282;78;25856;-80
2022/12/24 13:11:58;;;;;;;13.88;11.35;;;;;;;9.23;65.69;99563.07;2490684;77;25745;-77
2022/12/24 13:15:51;;;;;;;23.30;16.55;;;;;;;9.25;67.04;99565.69;2510162;78;25681;-78
2022/12/24 13:19:43;;;;;;;27.32;17.02;;;;;;;9.34;66.17;99577.54;2508507;77;25785;-82
2022/12/24 13:28:02;;;;;;;13.05;9.48;;;;;;;9.26;65.97;99582.63;2417508;80;25818;-85
2022/12/24 13:31:44;;;;;;;24.05;16.07;;;;;;;9.30;67.17;99590.92;2272412;86;25736;-84
2022/12/24 13:35:23;;;;;;;20.65;14.55;;;;;;;9.73;67.69;99600.69;2272599;85;25773;-79
2022/12/24 13:39:08;;;;;;;23.45;15.23;;;;;;;9.77;67.19;99601.61;2258931;85;25811;-81
2022/12/24 13:43:11;;;;;;;29.18;16.87;;;;;;;9.62;66.82;99607.05;2269089;85;25652;-80
2022/12/24 13:47:17;;;;;;;21.93;15.53;;;;;;;9.51;66.66;99611.19;2193921;88;26106;-78
2022/12/24 13:50:55;;;;;;;25.43;15.90;;;;;;;9.38;66.62;99613.15;2245560;86;25274;-81
2022/12/24 13:54:35;;;;;;;28.35;16.95;;;;;;;9.28;66.64;99621.66;2199636;88;25768;-79
2022/12/24 13:58:02;;;;;;;21.52;16.93;;;;;;;9.18;66.59;99633.23;2059495;94;25890;-81
2022/12/24 14:01:52;;;;;;;25.05;16.15;;;;;;;9.19;66.71;99638.87;2087437;93;25885;-78
2022/12/24 14:05:42;;;;;;;20.25;14.68;;;;;;;9.32;66.70;99645.16;2115246;91;25750;-79
2022/12/24 14:09:19;;;;;;;21.62;14.90;;;;;;;9.46;66.54;99653.19;2022903;94;25939;-78
2022/12/24 14:12:48;;;;;;;21.35;13.72;;;;;;;9.53;66.28;99655.47;2015619;95;25811;-80
2022/12/24 14:16:32;;;;;;;20.10;15.03;;;;;;;9.64;67.46;99665.61;2015469;95;25834;-80
2022/12/24 14:20:10;;;;;;;25.68;15.08;;;;;;;9.74;67.20;99677.05;2156457;88;25740;-80
2022/12/24 14:23:58;;;;;;;26.73;14.78;;;;;;;9.80;66.86;99688.86;2205113;89;26110;-79
2022/12/24 14:27:50;;;;;;;19.98;14.35;;;;;;;9.85;66.66;99698.47;2204916;89;25851;-79
2022/12/24 14:31:28;;;;;;;31.70;17.50;;;;;;;9.90;66.40;99697.26;2221687;83;25683;-80
2022/12/24 14:35:36;;;;;;;24.75;16.57;;;;;;;9.94;66.25;99699.92;2229831;87;25328;-78
2022/12/24 14:39:03;;;;;;;30.10;18.20;;;;;;;9.95;66.01;99715.11;2275006;84;25723;-80
2022/12/24 14:43:26;;;;;;;35.68;18.92;;;;;;;9.90;65.81;99718.09;2256389;87;25761;-79
2022/12/24 14:47:29;;;;;;;35.73;19.95;;;;;;;9.84;65.70;99716.69;2300631;84;25750;-80
2022/12/24 14:51:55;;;;;;;34.00;21.10;;;;;;;9.76;65.59;99720.47;2277681;85;26009;-79
2022/12/24 14:55:45;;;;;;;39.98;20.45;;;;;;;9.68;65.56;99733.77;2162378;90;25828;-78
2022/12/24 14:59:26;;;;;;;33.58;19.85;;;;;;;9.59;65.50;99740.14;2171075;88;25700;-78
2022/12/24 15:03:04;;;;;;;37.63;21.40;;;;;;;9.55;65.50;99747.02;2210697;87;25821;-79
2022/12/24 15:06:37;;;;;;;36.25;20.92;;;;;;;9.51;65.47;99754.30;2232198;87;25663;-78
2022/12/24 15:10:23;;;;;;;33.60;18.92;;;;;;;9.48;65.45;99757.27;2213290;87;25788;-79
2022/12/24 15:14:04;;;;;;;29.52;15.40;;;;;;;9.42;65.42;99762.83;2209650;87;25762;-80
2022/12/24 15:17:42;;;;;;;31.00;17.02;;;;;;;9.51;67.65;99761.23;2188746;89;26280;-78
2022/12/24 15:21:17;;;;;;;32.65;17.57;;;;;;;9.62;66.88;99773.59;2257884;83;25710;-77
2022/12/24 15:24:53;;;;;;;23.18;15.20;;;;;;;9.58;66.50;99781.30;2255048;87;25706;-79
2022/12/24 15:28:27;;;;;;;28.65;16.57;;;;;;;9.54;66.35;99780.37;2222341;87;26426;-80
2022/12/24 15:32:04;;;;;;;27.58;16.15;;;;;;;9.52;66.12;99796.41;2221356;89;25802;-79
2022/12/24 15:35:55;;;;;;;25.68;16.55;;;;;;;9.45;65.94;99791.52;2221583;89;25729;-76
2022/12/24 15:39:27;;;;;;;25.70;16.25;;;;;;;9.41;65.85;99790.97;2220603;89;25922;-80
2022/12/24 15:43:01;;;;;;;24.60;15.08;;;;;;;9.39;65.70;99786.62;2198019;89;25765;-80
2022/12/24 15:46:36;;;;;;;26.45;16.17;;;;;;;9.35;65.64;99804.32;2217299;89;25817;-79
2022/12/24 15:50:54;;;;;;;29.30;16.15;;;;;;;9.30;65.47;99799.44;2175657;90;26329;-78
2022/12/24 15:54:39;;;;;;;24.20;15.43;;;;;;;9.26;65.48;99802.83;2236871;88;25785;-79
2022/12/24 15:58:27;;;;;;;30.32;17.45;;;;;;;9.19;65.43;99809.20;2234431;87;26393;-82
2022/12/24 16:01:57;;;;;;;32.05;17.90;;;;;;;9.16;65.41;99813.05;2204536;88;25751;-79
2022/12/24 16:05:33;;;;;;;33.58;18.23;;;;;;;9.13;65.37;99813.41;2214769;88;25736;-78
2022/12/24 16:09:07;;;;;;;28.73;17.00;;;;;;;9.08;65.35;99815.92;2198533;89;25720;-83
2022/12/24 16:12:32;;;;;;;28.07;16.42;;;;;;;9.07;65.34;99821.95;2189523;88;25893;-82
2022/12/24 16:16:00;;;;;;;31.87;18.12;;;;;;;9.02;65.35;99830.52;2220248;88;25735;-80
2022/12/24 16:19:29;;;;;;;31.30;18.73;;;;;;;9.00;65.38;99827.88;2214892;87;25894;-80
2022/12/24 16:22:57;;;;;;;28.23;18.02;;;;;;;9.02;65.37;99831.82;2252109;86;25733;-81
2022/12/24 16:26:21;;;;;;;33.85;19.17;;;;;;;9.03;65.33;99825.77;2228251;87;25912;-78
2022/12/24 16:29:45;;;;;;;31.45;18.27;;;;;;;9.06;65.30;99834.51;2224314;88;25809;-83
2022/12/24 16:33:27;;;;;;;26.87;17.23;;;;;;;9.07;65.23;99841.87;2184352;88;26324;-81
2022/12/24 16:37:00;;;;;;;27.00;19.07;;;;;;;9.06;65.16;99849.23;2118635;92;25777;-80
2022/12/24 16:40:35;;;;;;;31.20;17.67;;;;;;;9.06;65.19;99854.01;2091078;92;25873;-81
2022/12/24 16:44:07;;;;;;;31.07;18.15;;;;;;;9.07;65.06;99860.08;2085445;92;25789;-81
2022/12/24 16:47:35;;;;;;;31.07;18.67;;;;;;;9.06;65.04;99857.03;2086726;92;25881;-81
2022/12/24 16:51:02;;;;;;;29.92;17.20;;;;;;;9.05;64.97;99853.98;2127557;91;26297;-80
2022/12/24 16:54:28;;;;;;;26.90;17.50;;;;;;;9.04;64.95;99854.81;2237915;87;25751;-79
2022/12/24 16:57:49;;;;;;;27.70;16.45;;;;;;;9.02;64.90;99858.70;2235928;87;25728;-80
2022/12/24 17:01:16;;;;;;;25.62;16.62;;;;;;;9.02;64.85;99861.30;2246476;87;26450;-79
2022/12/24 17:04:51;;;;;;;22.95;15.23;;;;;;;9.00;64.83;99869.47;2244326;87;25746;-80
2022/12/24 17:08:19;;;;;;;23.95;15.20;;;;;;;8.99;64.78;99880.72;2267539;84;25823;-79
2022/12/24 17:12:03;;;;;;;;;;;;;;;8.99;64.75;99884.63;2304092;84;25847;-79
2022/12/24 17:15:36;;;;;;;25.88;15.00;;;;;;;8.97;64.73;99881.97;2323917;83;25729;-79
2022/12/24 17:19:18;;;;;;;18.27;14.15;;;;;;;8.93;64.69;99886.66;2319638;84;25721;-81
2022/12/24 17:22:37;;;;;;;23.20;16.55;;;;;;;8.94;64.65;99898.83;2317043;83;25744;-81
2022/12/24 17:26:11;;;;;;;24.92;15.72;;;;;;;8.91;64.66;99896.55;2319969;84;25804;-79
2022/12/24 17:29:39;;;;;;;24.43;15.90;;;;;;;8.88;64.63;99897.81;2303930;84;26287;-80
2022/12/24 17:33:01;;;;;;;23.60;15.18;;;;;;;8.85;64.63;99902.52;2398953;78;25774;-77
2022/12/24 17:36:32;;;;;;;24.80;14.68;;;;;;;8.85;64.62;99910.74;2488192;78;25701;-80
2022/12/24 17:40:03;;;;;;;21.85;15.40;;;;;;;8.84;64.58;99909.87;2487135;77;25585;-77
2022/12/24 17:43:47;;;;;;;25.77;15.95;;;;;;;8.81;64.53;99912.39;2523301;77;25579;-77
2022/12/24 17:47:20;;;;;;;21.85;15.00;;;;;;;8.80;64.56;99918.41;2427017;81;25702;-78
2022/12/24 17:50:55;;;;;;;23.80;14.85;;;;;;;8.80;64.54;99922.73;2424625;80;26012;-79
2022/12/24 17:54:22;;;;;;;25.37;15.28;;;;;;;8.77;64.50;99920.06;2423183;81;25821;-80
2022/12/24 17:58:00;;;;;;;23.07;15.45;;;;;;;8.78;64.53;99927.04;2427456;79;25826;-78
2022/12/24 18:01:30;;;;;;;20.77;14.57;;;;;;;8.80;64.48;99933.13;2427910;81;25793;-78
2022/12/24 18:05:19;;;;;;;22.65;14.60;;;;;;;8.79;64.39;99938.75;2421510;81;25784;-82
2022/12/24 18:08:49;;;;;;;20.77;14.15;;;;;;;8.77;64.38;99936.95;2276090;84;25769;-78
2022/12/24 18:12:17;;;;;;;27.73;17.20;;;;;;;8.74;64.38;99945.16;2276854;85;25628;-78
2022/12/24 18:15:48;;;;;;;23.50;16.13;;;;;;;8.68;64.38;99950.63;2274157;85;25775;-79
2022/12/24 18:19:20;;;;;;;20.65;16.40;;;;;;;8.59;64.36;99955.16;2367501;81;25734;-79
2022/12/24 18:22:57;;;;;;;22.45;15.03;;;;;;;8.54;64.45;99958.48;2368395;81;26435;-79
2022/12/24 18:26:30;;;;;;;26.33;16.85;;;;;;;8.50;64.52;99964.92;2378396;81;25816;-78
2022/12/24 18:29:57;;;;;;;25.55;16.10;;;;;;;8.47;64.55;99967.45;2348445;82;25716;-78
2022/12/24 18:33:28;;;;;;;25.97;16.02;;;;;;;8.43;64.57;99974.67;2375156;82;25643;-78
2022/12/24 18:37:23;;;;;;;28.10;16.27;;;;;;;8.40;64.66;99975.02;2380402;81;25699;-79
2022/12/24 18:40:46;;;;;;;23.38;15.43;;;;;;;8.37;64.69;99976.20;2381983;82;25635;-77
2022/12/24 18:44:10;;;;;;;31.37;17.10;;;;;;;8.48;65.13;99975.69;2340452;82;25710;-80
2022/12/24 18:47:50;;;;;;;16.40;11.63;;;;;;;8.46;64.91;99974.76;2305806;83;25855;-80
2022/12/24 18:51:29;;;;;;;21.62;14.25;;;;;;;8.81;68.64;99975.17;2370468;81;26491;-80
2022/12/24 18:55:06;;;;;;;;;;;;;;;9.53;67.93;99982.90;2371608;80;25662;-80
2022/12/24 18:58:42;;;;;;;27.87;15.45;;;;;;;9.56;66.37;99989.90;2374493;82;25807;-80
2022/12/24 19:02:25;;;;;;;26.12;17.40;;;;;;;9.39;65.89;99988.23;2371446;83;25684;-79
2022/12/24 19:05:52;;;;;;;23.32;14.73;;;;;;;9.40;67.22;99997.36;2221104;88;25753;-80
2022/12/24 19:09:17;;;;;;;23.00;14.25;;;;;;;9.40;67.22;99997.36;2209344;89;25680;-80
2022/12/24 19:12:57;;;;;;;22.05;15.53;;;;;;;9.38;65.95;100005.58;2211780;89;25733;-81
2022/12/24 19:16:43;;;;;;;21.95;16.60;;;;;;;9.09;65.08;100014.42;2213707;89;25985;-81